createdAt,value
2023-04-26T00:02:20.856Z,6.20
2023-04-26T00:04:47.741Z,6.20
2023-04-26T00:07:14.447Z,6.30
2023-04-26T00:09:40.990Z,6.20
2023-04-26T00:12:07.837Z,6.20
2023-04-26T00:14:34.399Z,6.20
2023-04-26T00:17:00.996Z,6.20
2023-04-26T00:19:27.545Z,6.20
2023-04-26T00:21:54.517Z,6.10
2023-04-26T00:24:21.103Z,6.10
2023-04-26T00:26:47.674Z,6.10
2023-04-26T00:29:14.205Z,6.10
2023-04-26T00:31:40.816Z,6.10
2023-04-26T00:34:07.388Z,6.10
2023-04-26T00:36:33.920Z,6.10
2023-04-26T00:39:00.467Z,6.20
2023-04-26T00:41:27.036Z,6.20
2023-04-26T00:43:53.623Z,6.20
2023-04-26T00:46:20.803Z,6.30
2023-04-26T00:48:48.011Z,6.20
2023-04-26T00:51:15.374Z,6.20
2023-04-26T00:53:42.516Z,6.30
2023-04-26T00:56:12.718Z,6.30
2023-04-26T00:58:39.387Z,6.40
2023-04-26T01:01:06.013Z,6.30
2023-04-26T01:03:32.888Z,6.30
2023-04-26T01:05:59.633Z,6.30
2023-04-26T01:08:26.252Z,6.30
2023-04-26T01:10:54.368Z,6.30
2023-04-26T01:13:20.996Z,6.30
2023-04-26T01:15:48.581Z,6.30
2023-04-26T01:18:15.375Z,6.30
2023-04-26T01:20:42.266Z,6.30
2023-04-26T01:23:09.993Z,6.30
2023-04-26T01:25:36.826Z,6.30
2023-04-26T01:28:03.470Z,6.30
2023-04-26T01:30:30.099Z,6.20
2023-04-26T01:32:56.698Z,6.30
2023-04-26T01:35:23.273Z,6.30
2023-04-26T01:37:49.823Z,6.30
2023-04-26T01:40:16.451Z,6.30
2023-04-26T01:42:42.988Z,6.20
2023-04-26T01:45:09.906Z,6.20
2023-04-26T01:47:36.672Z,6.20
2023-04-26T01:50:03.448Z,6.20
2023-04-26T01:52:29.992Z,6.10
2023-04-26T01:54:56.542Z,6.10
2023-04-26T01:57:23.057Z,6.10
2023-04-26T01:59:49.600Z,6.10
2023-04-26T02:02:17.788Z,6.10
2023-04-26T02:04:44.774Z,6.10
2023-04-26T02:07:11.308Z,6.10
2023-04-26T02:09:37.890Z,6.10
2023-04-26T02:12:04.521Z,6.10
2023-04-26T02:14:31.092Z,6.10
2023-04-26T02:16:57.683Z,6.10
2023-04-26T02:19:24.281Z,6.10
2023-04-26T02:21:55.834Z,6.10
2023-04-26T02:24:22.632Z,6.10
2023-04-26T02:26:49.262Z,6.10
2023-04-26T02:29:16.023Z,6.20
2023-04-26T02:31:42.709Z,6.20
2023-04-26T02:34:09.506Z,6.20
2023-04-26T02:36:36.091Z,6.10
2023-04-26T02:39:02.684Z,6.20
2023-04-26T02:41:32.082Z,6.20
2023-04-26T02:43:58.833Z,6.20
2023-04-26T02:46:25.550Z,6.20
2023-04-26T02:48:52.293Z,6.20
2023-04-26T02:51:18.996Z,6.20
2023-04-26T02:53:45.561Z,6.20
2023-04-26T02:56:12.102Z,6.20
2023-04-26T02:58:38.665Z,6.10
2023-04-26T03:01:05.397Z,6.20
2023-04-26T03:03:32.401Z,6.10
2023-04-26T03:05:59.029Z,6.10
2023-04-26T03:08:25.605Z,6.10
2023-04-26T03:10:52.157Z,6.10
2023-04-26T03:13:18.731Z,6.20
2023-04-26T03:15:46.582Z,6.20
2023-04-26T03:18:13.144Z,6.10
2023-04-26T03:20:39.685Z,6.20
2023-04-26T03:23:06.260Z,6.10
2023-04-26T03:25:33.475Z,6.10
2023-04-26T03:28:00.082Z,6.10
2023-04-26T03:30:26.689Z,6.10
2023-04-26T03:32:53.362Z,6.10
2023-04-26T03:35:20.074Z,6.10
2023-04-26T03:37:46.642Z,6.10
2023-04-26T03:40:13.410Z,6.10
2023-04-26T03:42:39.959Z,6.10
2023-04-26T03:45:07.213Z,6.10
2023-04-26T03:47:33.784Z,6.10
2023-04-26T03:50:00.820Z,6.10
2023-04-26T03:52:27.381Z,6.00
2023-04-26T03:54:53.937Z,6.00
2023-04-26T03:57:20.492Z,5.90
2023-04-26T03:59:47.115Z,5.90
2023-04-26T04:02:13.792Z,5.90
2023-04-26T04:04:40.510Z,5.90
2023-04-26T04:07:07.229Z,5.80
2023-04-26T04:09:33.792Z,5.80
2023-04-26T04:12:00.358Z,5.80
2023-04-26T04:14:26.931Z,5.70
2023-04-26T04:16:53.468Z,5.80
2023-04-26T04:19:20.013Z,5.70
2023-04-26T04:21:46.581Z,5.70
2023-04-26T04:24:13.175Z,5.80
2023-04-26T04:26:39.722Z,5.80
2023-04-26T04:29:06.282Z,5.80
2023-04-26T04:31:32.876Z,5.80
2023-04-26T04:33:59.427Z,5.80
2023-04-26T04:36:26.017Z,5.90
2023-04-26T04:38:53.112Z,5.80
2023-04-26T04:41:19.854Z,5.80
2023-04-26T04:43:46.440Z,5.70
2023-04-26T04:46:13.057Z,5.70
2023-04-26T04:48:39.999Z,5.70
2023-04-26T04:51:06.568Z,5.70
2023-04-26T04:53:33.195Z,5.70
2023-04-26T04:56:00.536Z,5.80
2023-04-26T04:58:27.120Z,5.80
2023-04-26T05:00:53.658Z,5.80
2023-04-26T05:03:20.464Z,5.80
2023-04-26T05:05:47.135Z,5.90
2023-04-26T05:08:13.717Z,5.80
2023-04-26T05:10:40.251Z,5.80
2023-04-26T05:13:06.794Z,5.80
2023-04-26T05:15:33.385Z,5.80
2023-04-26T05:18:00.010Z,5.90
2023-04-26T05:20:26.640Z,5.90
2023-04-26T05:22:53.563Z,5.90
2023-04-26T05:25:22.310Z,5.90
2023-04-26T05:27:49.561Z,6.00
2023-04-26T05:30:16.162Z,6.00
2023-04-26T05:32:42.846Z,6.10
2023-04-26T05:35:09.553Z,6.20
2023-04-26T05:37:36.136Z,6.30
2023-04-26T05:40:03.177Z,6.40
2023-04-26T05:42:29.781Z,6.40
2023-04-26T05:44:59.195Z,6.50
2023-04-26T05:47:25.825Z,6.50
2023-04-26T05:49:52.443Z,6.50
2023-04-26T05:52:18.997Z,6.50
2023-04-26T05:54:45.578Z,6.60
2023-04-26T05:57:12.393Z,6.70
2023-04-26T05:59:39.483Z,6.70
2023-04-26T06:02:06.565Z,6.70
2023-04-26T06:04:33.404Z,6.70
2023-04-26T06:07:00.070Z,6.60
2023-04-26T06:09:27.004Z,6.70
2023-04-26T06:11:53.620Z,6.60
2023-04-26T06:14:30.043Z,6.70
2023-04-26T06:16:58.090Z,6.60
2023-04-26T06:19:24.942Z,6.60
2023-04-26T06:21:51.512Z,6.70
2023-04-26T06:24:18.078Z,6.70
2023-04-26T06:26:44.624Z,6.70
2023-04-26T06:29:11.195Z,6.70
2023-04-26T06:31:37.962Z,6.80
2023-04-26T06:34:04.808Z,6.80
2023-04-26T06:36:31.375Z,6.80
2023-04-26T06:38:58.019Z,6.90
2023-04-26T06:41:24.592Z,7.10
2023-04-26T06:43:51.476Z,7.10
2023-04-26T06:46:18.307Z,7.10
2023-04-26T06:48:44.862Z,7.20
2023-04-26T06:51:11.447Z,7.20
2023-04-26T06:53:38.041Z,7.30
2023-04-26T06:56:04.992Z,7.30
2023-04-26T06:58:31.615Z,7.30
2023-04-26T07:00:58.300Z,7.30
2023-04-26T07:03:25.067Z,7.30
2023-04-26T07:05:51.744Z,7.30
2023-04-26T07:08:18.370Z,7.30
2023-04-26T07:10:45.165Z,7.30
2023-04-26T07:13:11.741Z,7.30
2023-04-26T07:15:38.485Z,7.40
2023-04-26T07:18:05.080Z,7.20
2023-04-26T07:20:31.961Z,7.30
2023-04-26T07:22:58.600Z,7.30
2023-04-26T07:25:25.147Z,7.30
2023-04-26T07:27:51.724Z,7.40
2023-04-26T07:30:18.346Z,7.60
2023-04-26T07:32:44.945Z,7.60
2023-04-26T07:35:12.021Z,7.80
2023-04-26T07:37:38.871Z,7.70
2023-04-26T07:40:05.975Z,7.60
2023-04-26T07:42:32.540Z,7.60
2023-04-26T07:44:59.118Z,7.60
2023-04-26T07:47:25.748Z,7.80
2023-04-26T07:49:55.124Z,8.00
2023-04-26T07:52:21.724Z,8.20
2023-04-26T07:54:48.333Z,8.40
2023-04-26T07:57:14.925Z,8.60
2023-04-26T07:59:41.531Z,8.40
2023-04-26T08:02:08.256Z,8.40
2023-04-26T08:04:35.120Z,8.20
2023-04-26T08:07:02.056Z,8.20
2023-04-26T08:09:29.408Z,8.40
2023-04-26T08:11:56.300Z,8.50
2023-04-26T08:14:22.889Z,8.60
2023-04-26T08:16:49.489Z,8.70
2023-04-26T08:19:16.136Z,8.80
2023-04-26T08:21:42.736Z,8.80
2023-04-26T08:24:09.283Z,8.90
2023-04-26T08:26:35.841Z,8.90
2023-04-26T08:29:02.417Z,8.90
2023-04-26T08:31:29.030Z,9.10
2023-04-26T08:33:55.599Z,9.10
2023-04-26T08:36:22.184Z,9.20
2023-04-26T08:38:48.786Z,9.20
2023-04-26T08:41:22.005Z,9.30
2023-04-26T08:43:49.587Z,9.50
2023-04-26T08:46:19.599Z,9.20
2023-04-26T08:48:54.527Z,9.30
2023-04-26T08:51:22.235Z,9.50
2023-04-26T08:53:50.915Z,9.50
2023-04-26T08:56:17.759Z,9.50
2023-04-26T08:58:44.362Z,9.70
2023-04-26T09:01:15.030Z,9.60
2023-04-26T09:03:41.721Z,9.90
2023-04-26T09:06:08.706Z,10.00
2023-04-26T09:08:38.380Z,10.20
2023-04-26T09:11:05.072Z,10.30
2023-04-26T09:13:31.693Z,10.00
2023-04-26T09:15:58.453Z,10.00
2023-04-26T09:18:25.142Z,10.00
2023-04-26T09:21:05.060Z,9.60
2023-04-26T09:23:32.136Z,9.80
2023-04-26T09:26:20.994Z,10.00
2023-04-26T09:28:47.912Z,10.10
2023-04-26T09:31:38.933Z,10.30
2023-04-26T09:34:05.919Z,10.30
2023-04-26T09:36:32.570Z,10.40
2023-04-26T09:38:59.536Z,10.40
2023-04-26T09:41:42.614Z,10.40
2023-04-26T09:44:21.376Z,10.20
2023-04-26T09:47:08.460Z,10.40
2023-04-26T09:49:43.963Z,10.10
2023-04-26T09:52:10.649Z,10.20
2023-04-26T09:54:44.311Z,10.30
2023-04-26T09:57:12.479Z,10.40
2023-04-26T09:59:40.514Z,10.30
2023-04-26T10:02:13.937Z,10.30
2023-04-26T10:04:41.733Z,10.50
2023-04-26T10:07:09.566Z,10.50
2023-04-26T10:09:36.246Z,10.60
2023-04-26T10:12:02.943Z,10.90
2023-04-26T10:14:29.789Z,10.70
2023-04-26T10:16:58.170Z,10.60
2023-04-26T10:19:24.874Z,10.50
2023-04-26T10:21:53.401Z,10.40
2023-04-26T10:24:20.371Z,10.40
2023-04-26T10:26:47.625Z,10.30
2023-04-26T10:29:14.256Z,10.30
2023-04-26T10:32:02.547Z,10.10
2023-04-26T10:34:30.377Z,10.00
2023-04-26T10:37:14.671Z,10.00
2023-04-26T10:39:46.380Z,9.90
2023-04-26T10:42:24.223Z,9.80
2023-04-26T10:44:53.107Z,9.80
2023-04-26T10:47:32.780Z,9.70
2023-04-26T10:50:05.699Z,9.70
2023-04-26T10:52:33.208Z,9.70
2023-04-26T10:55:00.277Z,9.80
2023-04-26T10:57:48.646Z,9.70
2023-04-26T11:00:16.149Z,9.70
2023-04-26T11:03:03.884Z,9.90
2023-04-26T11:05:37.680Z,10.10
2023-04-26T11:08:13.952Z,10.20
2023-04-26T11:10:40.763Z,10.50
2023-04-26T11:13:07.892Z,10.50
2023-04-26T11:15:34.966Z,10.60
2023-04-26T11:18:05.241Z,10.70
2023-04-26T11:20:32.735Z,10.80
2023-04-26T11:23:00.295Z,10.90
2023-04-26T11:25:28.087Z,11.20
2023-04-26T11:28:01.880Z,11.40
2023-04-26T11:30:32.608Z,11.60
2023-04-26T11:33:00.333Z,11.50
2023-04-26T11:35:27.734Z,11.50
2023-04-26T11:37:54.328Z,11.40
2023-04-26T11:40:21.027Z,11.60
2023-04-26T11:42:47.594Z,11.80
2023-04-26T11:45:17.501Z,12.00
2023-04-26T11:47:45.357Z,11.80
2023-04-26T11:50:12.708Z,11.60
2023-04-26T11:52:40.351Z,11.60
2023-04-26T11:55:07.941Z,11.70
2023-04-26T11:57:34.939Z,12.10
2023-04-26T12:00:08.688Z,11.90
2023-04-26T12:02:35.945Z,12.00
2023-04-26T12:05:02.823Z,12.30
2023-04-26T12:07:35.200Z,12.60
2023-04-26T12:10:21.096Z,12.80
2023-04-26T12:12:48.660Z,12.80
2023-04-26T12:15:15.719Z,12.70
2023-04-26T12:18:10.805Z,12.60
2023-04-26T12:20:42.733Z,12.60
2023-04-26T12:23:14.444Z,12.40
2023-04-26T12:25:51.431Z,12.10
2023-04-26T12:28:18.312Z,12.20
2023-04-26T12:30:44.910Z,12.30
2023-04-26T12:33:17.123Z,12.20
2023-04-26T12:35:44.502Z,12.00
2023-04-26T12:38:11.435Z,12.00
2023-04-26T12:40:38.141Z,12.00
2023-04-26T12:43:04.751Z,12.00
2023-04-26T12:45:31.365Z,12.30
2023-04-26T12:47:58.004Z,12.50
2023-04-26T12:50:24.998Z,12.80
2023-04-26T12:52:51.867Z,12.70
2023-04-26T12:55:19.663Z,12.40
2023-04-26T12:57:46.307Z,12.50
2023-04-26T13:00:14.965Z,12.80
2023-04-26T13:02:41.714Z,12.90
2023-04-26T13:05:09.481Z,13.00
2023-04-26T13:07:38.289Z,12.90
2023-04-26T13:10:05.892Z,12.70
2023-04-26T13:12:32.805Z,13.00
2023-04-26T13:14:59.366Z,13.10
2023-04-26T13:17:26.177Z,13.00
2023-04-26T13:19:53.199Z,13.10
2023-04-26T13:22:20.559Z,12.70
2023-04-26T13:24:47.387Z,12.70
2023-04-26T13:27:14.240Z,12.90
2023-04-26T13:29:41.329Z,12.80
2023-04-26T13:32:08.017Z,12.90
2023-04-26T13:34:35.691Z,12.90
2023-04-26T13:37:02.342Z,12.90
2023-04-26T13:39:29.108Z,13.20
2023-04-26T13:41:55.850Z,13.20
2023-04-26T13:44:22.420Z,13.10
2023-04-26T13:46:49.016Z,13.00
2023-04-26T13:49:15.601Z,13.00
2023-04-26T13:51:42.408Z,13.00
2023-04-26T13:54:09.025Z,12.90
2023-04-26T13:56:35.871Z,12.90
2023-04-26T13:59:02.458Z,13.00
2023-04-26T14:01:29.467Z,13.00
2023-04-26T14:03:56.440Z,13.00
2023-04-26T14:06:23.285Z,13.00
2023-04-26T14:08:49.814Z,12.80
2023-04-26T14:11:16.420Z,12.90
2023-04-26T14:13:42.974Z,12.80
2023-04-26T14:16:09.597Z,12.70
2023-04-26T14:18:36.401Z,12.60
2023-04-26T14:21:03.181Z,12.50
2023-04-26T14:23:30.267Z,12.50
2023-04-26T14:25:56.834Z,12.60
2023-04-26T14:28:23.512Z,12.90
2023-04-26T14:30:50.089Z,13.00
2023-04-26T14:33:16.805Z,13.20
2023-04-26T14:35:43.562Z,13.50
2023-04-26T14:38:10.114Z,13.40
2023-04-26T14:40:37.087Z,13.30
2023-04-26T14:43:03.676Z,13.10
2023-04-26T14:45:43.366Z,13.20
2023-04-26T14:48:11.374Z,13.30
2023-04-26T14:50:38.166Z,13.00
2023-04-26T14:53:04.861Z,13.10
2023-04-26T14:55:31.430Z,13.30
2023-04-26T14:57:58.140Z,13.40
2023-04-26T15:00:24.742Z,13.30
2023-04-26T15:02:51.582Z,13.30
2023-04-26T15:05:18.417Z,13.20
2023-04-26T15:07:45.013Z,12.80
2023-04-26T15:10:11.566Z,12.70
2023-04-26T15:12:38.143Z,12.90
2023-04-26T15:15:05.136Z,12.80
2023-04-26T15:17:32.631Z,12.80
2023-04-26T15:20:00.297Z,12.70
2023-04-26T15:22:26.891Z,12.70
2023-04-26T15:24:53.499Z,12.60
2023-04-26T15:27:20.099Z,12.80
2023-04-26T15:29:46.634Z,12.80
2023-04-26T15:32:13.212Z,12.40
2023-04-26T15:34:41.495Z,12.60
2023-04-26T15:37:08.039Z,12.70
2023-04-26T15:39:34.583Z,12.80
2023-04-26T15:42:01.207Z,12.70
2023-04-26T15:44:27.935Z,12.70
2023-04-26T15:46:54.488Z,12.70
2023-04-26T15:49:22.965Z,12.70
2023-04-26T15:51:49.696Z,12.70
2023-04-26T15:54:16.335Z,12.70
2023-04-26T15:56:44.070Z,12.70
2023-04-26T15:59:10.633Z,12.80
2023-04-26T16:01:37.281Z,12.70
2023-04-26T16:04:04.185Z,12.70
2023-04-26T16:06:30.964Z,12.60
2023-04-26T16:08:57.782Z,12.60
2023-04-26T16:11:24.637Z,12.50
2023-04-26T16:13:51.167Z,12.30
2023-04-26T16:16:18.885Z,12.30
2023-04-26T16:18:45.483Z,12.20
2023-04-26T16:21:12.246Z,12.10
2023-04-26T16:23:40.061Z,12.00
2023-04-26T16:26:06.737Z,11.90
2023-04-26T16:28:33.342Z,11.90
2023-04-26T16:31:00.102Z,12.00
2023-04-26T16:33:27.056Z,11.90
2023-04-26T16:35:54.469Z,11.80
2023-04-26T16:38:22.281Z,12.10
2023-04-26T16:40:58.828Z,12.00
2023-04-26T16:43:29.278Z,12.10
2023-04-26T16:46:03.421Z,12.10
2023-04-26T16:48:31.408Z,12.00
2023-04-26T16:50:58.238Z,12.10
2023-04-26T16:53:24.961Z,12.00
2023-04-26T16:55:51.581Z,11.90
2023-04-26T16:58:18.190Z,11.80
2023-04-26T17:00:45.130Z,11.80
2023-04-26T17:03:12.113Z,11.70
2023-04-26T17:05:40.574Z,11.70
2023-04-26T17:08:07.787Z,11.60
2023-04-26T17:10:36.010Z,11.60
2023-04-26T17:13:03.898Z,11.60
2023-04-26T17:15:30.900Z,11.60
2023-04-26T17:17:57.555Z,11.50
2023-04-26T17:20:24.136Z,11.50
2023-04-26T17:22:50.707Z,11.40
2023-04-26T17:25:17.402Z,11.40
2023-04-26T17:27:44.123Z,11.40
2023-04-26T17:30:11.018Z,11.30
2023-04-26T17:32:37.769Z,11.40
2023-04-26T17:35:04.609Z,11.40
2023-04-26T17:37:31.203Z,11.30
2023-04-26T17:39:57.826Z,11.20
2023-04-26T17:42:24.459Z,11.20
2023-04-26T17:44:50.984Z,11.10
2023-04-26T17:47:17.578Z,11.10
2023-04-26T17:49:44.126Z,11.10
2023-04-26T17:52:11.679Z,11.10
2023-04-26T17:54:38.735Z,11.00
2023-04-26T17:57:05.268Z,11.00
2023-04-26T17:59:31.930Z,10.90
2023-04-26T18:01:58.740Z,10.90
2023-04-26T18:04:25.644Z,10.90
2023-04-26T18:06:52.417Z,10.90
2023-04-26T18:09:19.004Z,10.80
2023-04-26T18:11:45.745Z,10.80
2023-04-26T18:14:12.325Z,10.70
2023-04-26T18:16:38.982Z,10.80
2023-04-26T18:19:05.559Z,10.70
2023-04-26T18:21:32.131Z,10.60
2023-04-26T18:23:58.716Z,10.60
2023-04-26T18:26:25.269Z,10.50
2023-04-26T18:28:51.846Z,10.50
2023-04-26T18:31:18.875Z,10.40
2023-04-26T18:33:45.428Z,10.40
2023-04-26T18:36:12.043Z,10.40
2023-04-26T18:38:38.617Z,10.30
2023-04-26T18:41:05.224Z,10.30
2023-04-26T18:43:32.415Z,10.30
2023-04-26T18:45:59.130Z,10.20
2023-04-26T18:48:25.776Z,10.20
2023-04-26T18:50:53.752Z,10.10
2023-04-26T18:53:21.348Z,10.10
2023-04-26T18:55:51.959Z,10.00
2023-04-26T18:58:18.972Z,10.00
2023-04-26T19:00:45.608Z,9.90
2023-04-26T19:03:12.269Z,9.90
2023-04-26T19:05:42.721Z,9.80
2023-04-26T19:08:09.828Z,9.80
2023-04-26T19:10:36.418Z,9.80
2023-04-26T19:13:03.244Z,9.80
2023-04-26T19:15:29.811Z,9.80
2023-04-26T19:17:56.484Z,9.70
2023-04-26T19:20:25.052Z,9.60
2023-04-26T19:22:51.606Z,9.60
2023-04-26T19:25:18.264Z,9.50
2023-04-26T19:27:44.859Z,9.60
2023-04-26T19:30:12.182Z,9.50
2023-04-26T19:32:38.807Z,9.50
2023-04-26T19:35:05.608Z,9.50
2023-04-26T19:37:32.195Z,9.30
2023-04-26T19:39:58.917Z,9.30
2023-04-26T19:42:25.504Z,9.30
2023-04-26T19:44:52.090Z,9.30
2023-04-26T19:47:18.673Z,9.30
2023-04-26T19:49:45.253Z,9.20
2023-04-26T19:52:11.871Z,9.20
2023-04-26T19:54:38.445Z,9.20
2023-04-26T19:57:05.024Z,9.20
2023-04-26T19:59:31.640Z,9.20
2023-04-26T20:01:58.261Z,9.20
2023-04-26T20:04:24.993Z,9.20
2023-04-26T20:06:51.685Z,9.10
2023-04-26T20:09:18.278Z,9.10
2023-04-26T20:11:44.851Z,9.10
2023-04-26T20:14:11.498Z,9.10
2023-04-26T20:16:38.152Z,9.10
2023-04-26T20:19:04.981Z,9.00
2023-04-26T20:21:31.801Z,9.10
2023-04-26T20:23:58.364Z,9.00
2023-04-26T20:26:24.942Z,9.00
2023-04-26T20:28:51.576Z,9.00
2023-04-26T20:31:18.124Z,9.00
2023-04-26T20:33:44.696Z,8.90
2023-04-26T20:36:11.329Z,8.80
2023-04-26T20:38:37.903Z,8.70
2023-04-26T20:41:04.509Z,8.70
2023-04-26T20:43:31.121Z,8.60
2023-04-26T20:45:57.743Z,8.70
2023-04-26T20:48:24.354Z,8.60
2023-04-26T20:50:53.868Z,8.70
2023-04-26T20:53:20.465Z,8.70
2023-04-26T20:55:47.048Z,8.70
2023-04-26T20:58:13.683Z,8.70
2023-04-26T21:00:40.250Z,8.70
2023-04-26T21:03:06.919Z,8.70
2023-04-26T21:05:33.604Z,8.60
2023-04-26T21:08:00.182Z,8.60
2023-04-26T21:10:26.786Z,8.70
2023-04-26T21:12:53.350Z,8.60
2023-04-26T21:15:19.983Z,8.60
2023-04-26T21:17:46.591Z,8.40
2023-04-26T21:20:13.278Z,8.40
2023-04-26T21:22:39.880Z,8.20
2023-04-26T21:25:06.803Z,8.10
2023-04-26T21:27:33.470Z,8.20
2023-04-26T21:30:00.110Z,8.20
2023-04-26T21:32:26.711Z,8.20
2023-04-26T21:34:53.317Z,8.20
2023-04-26T21:37:19.905Z,8.20
2023-04-26T21:39:46.477Z,8.20
2023-04-26T21:42:13.104Z,8.10
2023-04-26T21:44:39.849Z,8.10
2023-04-26T21:47:06.582Z,8.00
2023-04-26T21:49:33.345Z,8.10
2023-04-26T21:52:00.142Z,8.20
2023-04-26T21:54:26.701Z,8.10
2023-04-26T21:56:53.251Z,8.10
2023-04-26T21:59:19.834Z,8.10
2023-04-26T22:01:46.456Z,8.10
2023-04-26T22:04:13.312Z,8.20
2023-04-26T22:06:39.959Z,8.20
2023-04-26T22:09:06.550Z,8.20
2023-04-26T22:11:33.170Z,8.20
2023-04-26T22:14:01.033Z,8.20
2023-04-26T22:16:27.645Z,8.20
2023-04-26T22:18:54.291Z,8.20
2023-04-26T22:21:20.925Z,8.00
2023-04-26T22:23:47.513Z,8.00
2023-04-26T22:26:14.405Z,8.10
2023-04-26T22:28:40.982Z,8.00
2023-04-26T22:31:07.587Z,8.10
2023-04-26T22:33:34.175Z,8.00
2023-04-26T22:36:00.774Z,7.90
2023-04-26T22:38:27.336Z,7.90
2023-04-26T22:40:54.300Z,7.80
2023-04-26T22:43:21.942Z,7.90
2023-04-26T22:45:48.642Z,7.90
2023-04-26T22:48:15.288Z,7.90
2023-04-26T22:50:41.868Z,7.90
2023-04-26T22:53:08.520Z,7.90
2023-04-26T22:55:35.095Z,7.90
2023-04-26T22:58:01.697Z,7.90
2023-04-26T23:00:28.282Z,7.80
2023-04-26T23:02:54.948Z,7.80
2023-04-26T23:05:21.807Z,7.80
2023-04-26T23:07:48.370Z,7.80
2023-04-26T23:10:15.196Z,7.80
2023-04-26T23:12:41.856Z,7.80
2023-04-26T23:15:09.114Z,7.80
2023-04-26T23:17:35.889Z,7.70
2023-04-26T23:20:02.759Z,7.70
2023-04-26T23:22:29.329Z,7.60
2023-04-26T23:24:56.122Z,7.50
2023-04-26T23:27:22.724Z,7.50
2023-04-26T23:29:50.034Z,7.40
2023-04-26T23:32:16.617Z,7.50
2023-04-26T23:34:43.215Z,7.40
2023-04-26T23:37:09.779Z,7.30
2023-04-26T23:39:36.518Z,7.40
2023-04-26T23:42:03.243Z,7.40
2023-04-26T23:44:29.811Z,7.40
2023-04-26T23:46:56.441Z,7.40
2023-04-26T23:49:23.059Z,7.40
2023-04-26T23:51:49.705Z,7.40
2023-04-26T23:54:16.373Z,7.30
2023-04-26T23:56:42.978Z,7.30
2023-04-26T23:59:09.550Z,7.10
